Time,TemperatureF,DewpointF,PressureIn,WindDirection,WindDirectionDegrees,WindSpeedMPH,WindSpeedGustMPH,Humidity,HourlyPrecipIn,Conditions,Clouds,dailyrainin,SoftwareType,DateUTC
2013-02-06 00:00:00,43.0,-99.9,-100.00,WSW,257,4.0,7.0,-999,-99.99,,,-99.99,,2013-02-06 07:00:00,
2013-02-06 00:32:00,43.0,-99.9,-100.00,WSW,257,4.0,7.0,-999,-99.99,,,-99.99,,2013-02-06 07:32:00,
2013-02-06 00:42:00,43.0,-99.9,-100.00,WSW,257,4.0,7.0,-999,-99.99,,,-99.99,,2013-02-06 07:42:00,
2013-02-06 00:52:00,43.0,-99.9,-100.00,WSW,257,4.0,7.0,-999,-99.99,,,-99.99,,2013-02-06 07:52:00,
2013-02-06 01:00:00,43.0,-99.9,-100.00,West,274,11.0,13.0,-999,-99.99,,,-99.99,,2013-02-06 08:00:00,
2013-02-06 01:32:00,43.0,-99.9,-100.00,West,274,11.0,13.0,-999,-99.99,,,-99.99,,2013-02-06 08:32:00,
2013-02-06 01:42:00,43.0,-99.9,-100.00,West,274,11.0,13.0,-999,-99.99,,,-99.99,,2013-02-06 08:42:00,
2013-02-06 01:53:00,43.0,-99.9,-100.00,West,274,11.0,13.0,-999,-99.99,,,-99.99,,2013-02-06 08:53:00,
2013-02-06 02:00:00,41.0,-99.9,-100.00,WSW,238,9.0,11.0,-999,-99.99,,,-99.99,,2013-02-06 09:00:00,
2013-02-06 02:32:00,41.0,-99.9,-100.00,WSW,238,9.0,11.0,-999,-99.99,,,-99.99,,2013-02-06 09:32:00,
2013-02-06 02:42:00,41.0,-99.9,-100.00,WSW,238,9.0,11.0,-999,-99.99,,,-99.99,,2013-02-06 09:42:00,
2013-02-06 02:52:00,41.0,-99.9,-100.00,WSW,238,9.0,11.0,-999,-99.99,,,-99.99,,2013-02-06 09:52:00,
2013-02-06 03:00:00,42.0,-99.9,-100.00,WNW,289,10.0,14.0,-999,-99.99,,,-99.99,,2013-02-06 10:00:00,
2013-02-06 03:32:00,42.0,-99.9,-100.00,WNW,289,10.0,14.0,-999,-99.99,,,-99.99,,2013-02-06 10:32:00,
2013-02-06 03:42:00,42.0,-99.9,-100.00,WNW,289,10.0,14.0,-999,-99.99,,,-99.99,,2013-02-06 10:42:00,
2013-02-06 03:52:00,42.0,-99.9,-100.00,WNW,289,10.0,14.0,-999,-99.99,,,-99.99,,2013-02-06 10:52:00,
2013-02-06 04:00:00,41.0,-99.9,-100.00,WNW,284,14.0,18.0,-999,-99.99,,,-99.99,,2013-02-06 11:00:00,
2013-02-06 04:33:00,41.0,-99.9,-100.00,WNW,284,14.0,18.0,-999,-99.99,,,-99.99,,2013-02-06 11:33:00,
2013-02-06 04:42:00,41.0,-99.9,-100.00,WNW,284,14.0,18.0,-999,-99.99,,,-99.99,,2013-02-06 11:42:00,
2013-02-06 04:53:00,41.0,-99.9,-100.00,WNW,284,14.0,18.0,-999,-99.99,,,-99.99,,2013-02-06 11:53:00,
2013-02-06 05:00:00,41.0,-99.9,-100.00,West,270,21.0,26.0,-999,-99.99,,,-99.99,,2013-02-06 12:00:00,
2013-02-06 05:32:00,41.0,-99.9,-100.00,West,270,21.0,26.0,-999,-99.99,,,-99.99,,2013-02-06 12:32:00,
2013-02-06 05:42:00,41.0,-99.9,-100.00,West,270,21.0,26.0,-999,-99.99,,,-99.99,,2013-02-06 12:42:00,
2013-02-06 05:52:00,41.0,-99.9,-100.00,West,270,21.0,26.0,-999,-99.99,,,-99.99,,2013-02-06 12:52:00,
2013-02-06 06:00:00,41.0,-99.9,-100.00,West,266,14.0,17.0,-999,-99.99,,,-99.99,,2013-02-06 13:00:00,
2013-02-06 06:32:00,41.0,-99.9,-100.00,West,266,14.0,17.0,-999,-99.99,,,-99.99,,2013-02-06 13:32:00,
2013-02-06 06:42:00,41.0,-99.9,-100.00,West,266,14.0,17.0,-999,-99.99,,,-99.99,,2013-02-06 13:42:00,
2013-02-06 06:52:00,41.0,-99.9,-100.00,West,266,14.0,17.0,-999,-99.99,,,-99.99,,2013-02-06 13:52:00,
2013-02-06 07:00:00,38.0,-99.9,-100.00,WSW,250,14.0,18.0,-999,-99.99,,,-99.99,,2013-02-06 14:00:00,
2013-02-06 07:32:00,38.0,-99.9,-100.00,WSW,250,14.0,18.0,-999,-99.99,,,-99.99,,2013-02-06 14:32:00,
2013-02-06 07:42:00,38.0,-99.9,-100.00,WSW,250,14.0,18.0,-999,-99.99,,,-99.99,,2013-02-06 14:42:00,
2013-02-06 07:52:00,38.0,-99.9,-100.00,WSW,250,14.0,18.0,-999,-99.99,,,-99.99,,2013-02-06 14:52:00,
2013-02-06 08:00:00,33.0,-99.9,-100.00,ESE,102,2.0,3.0,-999,-99.99,,,-99.99,,2013-02-06 15:00:00,
2013-02-06 08:52:00,33.0,-99.9,-100.00,ESE,102,2.0,3.0,-999,-99.99,,,-99.99,,2013-02-06 15:52:00,
2013-02-06 09:00:00,39.0,-99.9,-100.00,East,95,11.0,12.0,-999,-99.99,,,-99.99,,2013-02-06 16:00:00,
2013-02-06 09:32:00,39.0,-99.9,-100.00,East,95,11.0,12.0,-999,-99.99,,,-99.99,,2013-02-06 16:32:00,
2013-02-06 09:42:00,39.0,-99.9,-100.00,East,95,11.0,12.0,-999,-99.99,,,-99.99,,2013-02-06 16:42:00,
2013-02-06 09:52:00,39.0,-99.9,-100.00,East,95,11.0,12.0,-999,-99.99,,,-99.99,,2013-02-06 16:52:00,
2013-02-06 10:00:00,39.0,-99.9,-100.00,NE,50,4.0,6.0,-999,-99.99,,,-99.99,,2013-02-06 17:00:00,
2013-02-06 10:33:00,39.0,-99.9,-100.00,NE,50,4.0,6.0,-999,-99.99,,,-99.99,,2013-02-06 17:33:00,
2013-02-06 10:42:00,39.0,-99.9,-100.00,NE,50,4.0,6.0,-999,-99.99,,,-99.99,,2013-02-06 17:42:00,
2013-02-06 10:53:00,39.0,-99.9,-100.00,NE,50,4.0,6.0,-999,-99.99,,,-99.99,,2013-02-06 17:53:00,
2013-02-06 11:00:00,47.0,-99.9,-100.00,SE,124,2.0,4.0,-999,-99.99,,,-99.99,,2013-02-06 18:00:00,
2013-02-06 11:33:00,47.0,-99.9,-100.00,SE,124,2.0,4.0,-999,-99.99,,,-99.99,,2013-02-06 18:33:00,
2013-02-06 11:42:00,47.0,-99.9,-100.00,SE,124,2.0,4.0,-999,-99.99,,,-99.99,,2013-02-06 18:42:00,
2013-02-06 11:52:00,47.0,-99.9,-100.00,SE,124,2.0,4.0,-999,-99.99,,,-99.99,,2013-02-06 18:52:00,
2013-02-06 12:00:00,46.0,-99.9,-100.00,West,264,15.0,18.0,-999,-99.99,,,-99.99,,2013-02-06 19:00:00,
2013-02-06 12:32:00,46.0,-99.9,-100.00,West,264,15.0,18.0,-999,-99.99,,,-99.99,,2013-02-06 19:32:00,
2013-02-06 12:42:00,46.0,-99.9,-100.00,West,264,15.0,18.0,-999,-99.99,,,-99.99,,2013-02-06 19:42:00,
2013-02-06 12:52:00,46.0,-99.9,-100.00,West,264,15.0,18.0,-999,-99.99,,,-99.99,,2013-02-06 19:52:00,
2013-02-06 13:00:00,47.0,-99.9,-100.00,NE,52,2.0,4.0,-999,-99.99,,,-99.99,,2013-02-06 20:00:00,
2013-02-06 13:32:00,47.0,-99.9,-100.00,NE,52,2.0,4.0,-999,-99.99,,,-99.99,,2013-02-06 20:32:00,
2013-02-06 13:42:00,47.0,-99.9,-100.00,NE,52,2.0,4.0,-999,-99.99,,,-99.99,,2013-02-06 20:42:00,
2013-02-06 13:52:00,47.0,-99.9,-100.00,NE,52,2.0,4.0,-999,-99.99,,,-99.99,,2013-02-06 20:52:00,
2013-02-06 14:00:00,43.0,-99.9,-100.00,North,11,7.0,14.0,-999,-99.99,,,-99.99,,2013-02-06 21:00:00,
2013-02-06 14:32:00,43.0,-99.9,-100.00,North,11,7.0,14.0,-999,-99.99,,,-99.99,,2013-02-06 21:32:00,
2013-02-06 14:42:00,43.0,-99.9,-100.00,North,11,7.0,14.0,-999,-99.99,,,-99.99,,2013-02-06 21:42:00,
2013-02-06 14:52:00,43.0,-99.9,-100.00,North,11,7.0,14.0,-999,-99.99,,,-99.99,,2013-02-06 21:52:00,
2013-02-06 15:00:00,45.0,-99.9,-100.00,North,356,2.0,5.0,-999,-99.99,,,-99.99,,2013-02-06 22:00:00,
2013-02-06 15:32:00,45.0,-99.9,-100.00,North,356,2.0,5.0,-999,-99.99,,,-99.99,,2013-02-06 22:32:00,
2013-02-06 15:42:00,45.0,-99.9,-100.00,North,356,2.0,5.0,-999,-99.99,,,-99.99,,2013-02-06 22:42:00,
2013-02-06 15:52:00,45.0,-99.9,-100.00,North,356,2.0,5.0,-999,-99.99,,,-99.99,,2013-02-06 22:52:00,
2013-02-06 16:00:00,44.0,-99.9,-100.00,West,269,14.0,18.0,-999,-99.99,,,-99.99,,2013-02-06 23:00:00,
2013-02-06 16:32:00,44.0,-99.9,-100.00,West,269,14.0,18.0,-999,-99.99,,,-99.99,,2013-02-06 23:32:00,
2013-02-06 16:42:00,44.0,-99.9,-100.00,West,269,14.0,18.0,-999,-99.99,,,-99.99,,2013-02-06 23:42:00,
2013-02-06 16:52:00,44.0,-99.9,-100.00,West,269,14.0,18.0,-999,-99.99,,,-99.99,,2013-02-06 23:52:00,
2013-02-06 17:00:00,40.0,-99.9,-100.00,West,267,14.0,19.0,-999,-99.99,,,-99.99,,2013-02-07 00:00:00,
2013-02-06 17:32:00,40.0,-99.9,-100.00,West,267,14.0,19.0,-999,-99.99,,,-99.99,,2013-02-07 00:32:00,
2013-02-06 17:42:00,40.0,-99.9,-100.00,West,267,14.0,19.0,-999,-99.99,,,-99.99,,2013-02-07 00:42:00,
2013-02-06 17:52:00,40.0,-99.9,-100.00,West,267,14.0,19.0,-999,-99.99,,,-99.99,,2013-02-07 00:52:00,
2013-02-06 18:00:00,35.0,-99.9,-100.00,South,173,4.0,5.0,-999,-99.99,,,-99.99,,2013-02-07 01:00:00,
2013-02-06 18:32:00,35.0,-99.9,-100.00,South,173,4.0,5.0,-999,-99.99,,,-99.99,,2013-02-07 01:32:00,
2013-02-06 18:42:00,35.0,-99.9,-100.00,South,173,4.0,5.0,-999,-99.99,,,-99.99,,2013-02-07 01:42:00,
2013-02-06 18:52:00,35.0,-99.9,-100.00,South,173,4.0,5.0,-999,-99.99,,,-99.99,,2013-02-07 01:52:00,
2013-02-06 19:00:00,34.0,-99.9,-100.00,SW,225,10.0,12.0,-999,-99.99,,,-99.99,,2013-02-07 02:00:00,
2013-02-06 19:32:00,34.0,-99.9,-100.00,SW,225,10.0,12.0,-999,-99.99,,,-99.99,,2013-02-07 02:32:00,
2013-02-06 19:42:00,34.0,-99.9,-100.00,SW,225,10.0,12.0,-999,-99.99,,,-99.99,,2013-02-07 02:42:00,
2013-02-06 19:52:00,34.0,-99.9,-100.00,SW,225,10.0,12.0,-999,-99.99,,,-99.99,,2013-02-07 02:52:00,
2013-02-06 20:00:00,37.0,-99.9,-100.00,West,274,15.0,21.0,-999,-99.99,,,-99.99,,2013-02-07 03:00:00,
2013-02-06 20:32:00,37.0,-99.9,-100.00,West,274,15.0,21.0,-999,-99.99,,,-99.99,,2013-02-07 03:32:00,
2013-02-06 20:42:00,37.0,-99.9,-100.00,West,274,15.0,21.0,-999,-99.99,,,-99.99,,2013-02-07 03:42:00,
2013-02-06 20:52:00,37.0,-99.9,-100.00,West,274,15.0,21.0,-999,-99.99,,,-99.99,,2013-02-07 03:52:00,
2013-02-06 21:00:00,36.0,-99.9,-100.00,West,261,10.0,15.0,-999,-99.99,,,-99.99,,2013-02-07 04:00:00,
2013-02-06 21:32:00,36.0,-99.9,-100.00,West,261,10.0,15.0,-999,-99.99,,,-99.99,,2013-02-07 04:32:00,
2013-02-06 21:42:00,36.0,-99.9,-100.00,West,261,10.0,15.0,-999,-99.99,,,-99.99,,2013-02-07 04:42:00,
2013-02-06 21:53:00,36.0,-99.9,-100.00,West,261,10.0,15.0,-999,-99.99,,,-99.99,,2013-02-07 04:53:00,
2013-02-06 22:00:00,36.0,-99.9,-100.00,West,276,26.0,35.0,-999,-99.99,,,-99.99,,2013-02-07 05:00:00,
2013-02-06 22:32:00,36.0,-99.9,-100.00,West,276,26.0,35.0,-999,-99.99,,,-99.99,,2013-02-07 05:32:00,
2013-02-06 22:43:00,36.0,-99.9,-100.00,West,276,26.0,35.0,-999,-99.99,,,-99.99,,2013-02-07 05:43:00,
2013-02-06 22:52:00,36.0,-99.9,-100.00,West,276,26.0,35.0,-999,-99.99,,,-99.99,,2013-02-07 05:52:00,
2013-02-06 23:00:00,35.0,-99.9,-100.00,WNW,286,27.0,33.0,-999,-99.99,,,-99.99,,2013-02-07 06:00:00,
2013-02-06 23:32:00,35.0,-99.9,-100.00,WNW,286,27.0,33.0,-999,-99.99,,,-99.99,,2013-02-07 06:32:00,
2013-02-06 23:43:00,35.0,-99.9,-100.00,WNW,286,27.0,33.0,-999,-99.99,,,-99.99,,2013-02-07 06:43:00,
2013-02-06 23:53:00,35.0,-99.9,-100.00,WNW,286,27.0,33.0,-999,-99.99,,,-99.99,,2013-02-07 06:53:00,